sensor_id;sensor_type;location;lat;lon;timestamp;P1;durP1;ratioP1;P2;durP2;ratioP2
36377;SDS011;22402;42.746;23.606;2023-12-20T00:02:12;24.70;;;15.80;;
36377;SDS011;22402;42.746;23.606;2023-12-20T00:04:38;26.40;;;14.77;;
36377;SDS011;22402;42.746;23.606;2023-12-20T00:07:04;24.27;;;15.73;;
36377;SDS011;22402;42.746;23.606;2023-12-20T00:09:29;27.63;;;15.20;;
36377;SDS011;22402;42.746;23.606;2023-12-20T00:11:54;22.33;;;14.07;;
36377;SDS011;22402;42.746;23.606;2023-12-20T00:14:20;20.10;;;12.50;;
36377;SDS011;22402;42.746;23.606;2023-12-20T00:16:45;11.53;;;8.43;;
36377;SDS011;22402;42.746;23.606;2023-12-20T00:19:12;10.40;;;7.17;;
36377;SDS011;22402;42.746;23.606;2023-12-20T00:21:37;8.73;;;5.53;;
36377;SDS011;22402;42.746;23.606;2023-12-20T00:24:02;7.60;;;5.10;;
36377;SDS011;22402;42.746;23.606;2023-12-20T00:26:28;5.10;;;4.20;;
36377;SDS011;22402;42.746;23.606;2023-12-20T00:28:54;9.67;;;4.40;;
36377;SDS011;22402;42.746;23.606;2023-12-20T00:31:19;7.80;;;4.80;;
36377;SDS011;22402;42.746;23.606;2023-12-20T00:33:45;6.30;;;3.80;;
36377;SDS011;22402;42.746;23.606;2023-12-20T00:36:12;10.30;;;5.03;;
36377;SDS011;22402;42.746;23.606;2023-12-20T00:38:37;8.10;;;6.30;;
36377;SDS011;22402;42.746;23.606;2023-12-20T00:41:03;5.77;;;4.87;;
36377;SDS011;22402;42.746;23.606;2023-12-20T00:43:29;5.60;;;4.27;;
36377;SDS011;22402;42.746;23.606;2023-12-20T00:45:54;6.03;;;4.43;;
36377;SDS011;22402;42.746;23.606;2023-12-20T00:48:20;5.97;;;4.40;;
36377;SDS011;22402;42.746;23.606;2023-12-20T00:50:46;7.00;;;4.00;;
36377;SDS011;22402;42.746;23.606;2023-12-20T00:53:11;4.80;;;4.23;;
36377;SDS011;22402;42.746;23.606;2023-12-20T00:55:37;8.37;;;3.77;;
36377;SDS011;22402;42.746;23.606;2023-12-20T00:58:02;6.77;;;4.77;;
36377;SDS011;22402;42.746;23.606;2023-12-20T01:00:28;4.80;;;3.70;;
36377;SDS011;22402;42.746;23.606;2023-12-20T01:02:54;5.30;;;3.60;;
36377;SDS011;22402;42.746;23.606;2023-12-20T01:05:19;20.87;;;9.90;;
36377;SDS011;22402;42.746;23.606;2023-12-20T01:07:48;18.77;;;11.03;;
36377;SDS011;22402;42.746;23.606;2023-12-20T01:10:14;17.43;;;10.63;;
36377;SDS011;22402;42.746;23.606;2023-12-20T01:12:39;16.63;;;10.67;;
36377;SDS011;22402;42.746;23.606;2023-12-20T01:15:05;17.30;;;10.70;;
36377;SDS011;22402;42.746;23.606;2023-12-20T01:17:31;16.43;;;10.73;;
36377;SDS011;22402;42.746;23.606;2023-12-20T01:19:56;17.53;;;10.33;;
36377;SDS011;22402;42.746;23.606;2023-12-20T01:22:21;15.67;;;9.83;;
36377;SDS011;22402;42.746;23.606;2023-12-20T01:24:47;17.93;;;9.83;;
36377;SDS011;22402;42.746;23.606;2023-12-20T01:27:13;14.97;;;10.27;;
36377;SDS011;22402;42.746;23.606;2023-12-20T01:29:38;13.60;;;8.70;;
36377;SDS011;22402;42.746;23.606;2023-12-20T01:32:04;9.73;;;6.90;;
36377;SDS011;22402;42.746;23.606;2023-12-20T01:34:29;7.90;;;5.80;;
36377;SDS011;22402;42.746;23.606;2023-12-20T01:36:55;6.90;;;5.43;;
36377;SDS011;22402;42.746;23.606;2023-12-20T01:39:22;7.23;;;5.47;;
36377;SDS011;22402;42.746;23.606;2023-12-20T01:41:48;6.73;;;5.33;;
36377;SDS011;22402;42.746;23.606;2023-12-20T01:44:13;6.53;;;4.97;;
36377;SDS011;22402;42.746;23.606;2023-12-20T01:46:39;6.37;;;4.37;;
36377;SDS011;22402;42.746;23.606;2023-12-20T01:49:06;7.80;;;4.83;;
36377;SDS011;22402;42.746;23.606;2023-12-20T01:51:31;7.23;;;4.10;;
36377;SDS011;22402;42.746;23.606;2023-12-20T01:53:58;6.30;;;4.00;;
36377;SDS011;22402;42.746;23.606;2023-12-20T01:56:28;8.77;;;4.73;;
36377;SDS011;22402;42.746;23.606;2023-12-20T01:58:54;5.90;;;4.13;;
36377;SDS011;22402;42.746;23.606;2023-12-20T02:01:20;6.20;;;4.77;;
36377;SDS011;22402;42.746;23.606;2023-12-20T02:03:46;9.90;;;5.03;;
36377;SDS011;22402;42.746;23.606;2023-12-20T02:06:12;10.13;;;4.47;;
36377;SDS011;22402;42.746;23.606;2023-12-20T02:08:38;7.73;;;3.80;;
36377;SDS011;22402;42.746;23.606;2023-12-20T02:11:03;5.10;;;3.83;;
36377;SDS011;22402;42.746;23.606;2023-12-20T02:13:30;6.67;;;4.40;;
36377;SDS011;22402;42.746;23.606;2023-12-20T02:15:55;5.40;;;4.23;;
36377;SDS011;22402;42.746;23.606;2023-12-20T02:18:21;6.80;;;4.23;;
36377;SDS011;22402;42.746;23.606;2023-12-20T02:20:47;6.00;;;4.00;;
36377;SDS011;22402;42.746;23.606;2023-12-20T02:23:13;5.53;;;3.90;;
36377;SDS011;22402;42.746;23.606;2023-12-20T02:25:38;6.83;;;4.80;;
36377;SDS011;22402;42.746;23.606;2023-12-20T02:28:04;6.40;;;5.30;;
36377;SDS011;22402;42.746;23.606;2023-12-20T02:30:30;7.70;;;6.17;;
36377;SDS011;22402;42.746;23.606;2023-12-20T02:32:55;9.70;;;6.40;;
36377;SDS011;22402;42.746;23.606;2023-12-20T02:35:21;6.67;;;5.73;;
36377;SDS011;22402;42.746;23.606;2023-12-20T02:37:46;13.13;;;5.57;;
36377;SDS011;22402;42.746;23.606;2023-12-20T02:40:12;6.60;;;4.33;;
36377;SDS011;22402;42.746;23.606;2023-12-20T02:42:37;8.83;;;6.07;;
36377;SDS011;22402;42.746;23.606;2023-12-20T02:45:03;18.40;;;11.63;;
36377;SDS011;22402;42.746;23.606;2023-12-20T02:47:29;27.17;;;16.23;;
36377;SDS011;22402;42.746;23.606;2023-12-20T02:49:55;28.60;;;17.50;;
36377;SDS011;22402;42.746;23.606;2023-12-20T02:52:21;37.10;;;21.87;;
36377;SDS011;22402;42.746;23.606;2023-12-20T02:54:48;47.13;;;26.00;;
36377;SDS011;22402;42.746;23.606;2023-12-20T02:57:13;49.53;;;28.53;;
36377;SDS011;22402;42.746;23.606;2023-12-20T02:59:39;46.97;;;26.60;;
36377;SDS011;22402;42.746;23.606;2023-12-20T03:02:04;50.30;;;24.43;;
36377;SDS011;22402;42.746;23.606;2023-12-20T03:04:30;39.30;;;22.80;;
36377;SDS011;22402;42.746;23.606;2023-12-20T03:06:56;38.43;;;22.40;;
36377;SDS011;22402;42.746;23.606;2023-12-20T03:09:21;30.63;;;18.37;;
36377;SDS011;22402;42.746;23.606;2023-12-20T03:11:47;26.20;;;17.37;;
36377;SDS011;22402;42.746;23.606;2023-12-20T03:14:12;28.20;;;15.80;;
36377;SDS011;22402;42.746;23.606;2023-12-20T03:16:38;22.57;;;13.67;;
36377;SDS011;22402;42.746;23.606;2023-12-20T03:19:03;17.77;;;12.47;;
36377;SDS011;22402;42.746;23.606;2023-12-20T03:21:28;15.57;;;10.27;;
36377;SDS011;22402;42.746;23.606;2023-12-20T03:23:54;14.37;;;9.17;;
36377;SDS011;22402;42.746;23.606;2023-12-20T03:26:19;15.07;;;9.40;;
36377;SDS011;22402;42.746;23.606;2023-12-20T03:28:45;13.00;;;8.90;;
36377;SDS011;22402;42.746;23.606;2023-12-20T03:31:10;11.23;;;7.20;;
36377;SDS011;22402;42.746;23.606;2023-12-20T03:33:36;9.97;;;6.17;;
36377;SDS011;22402;42.746;23.606;2023-12-20T03:36:01;6.33;;;4.43;;
36377;SDS011;22402;42.746;23.606;2023-12-20T03:38:27;5.10;;;3.97;;
36377;SDS011;22402;42.746;23.606;2023-12-20T03:40:52;8.47;;;4.60;;
36377;SDS011;22402;42.746;23.606;2023-12-20T03:43:18;36.10;;;21.10;;
36377;SDS011;22402;42.746;23.606;2023-12-20T03:45:43;22.10;;;13.40;;
36377;SDS011;22402;42.746;23.606;2023-12-20T03:48:09;18.20;;;11.10;;
36377;SDS011;22402;42.746;23.606;2023-12-20T03:50:35;13.13;;;8.13;;
36377;SDS011;22402;42.746;23.606;2023-12-20T03:53:01;11.40;;;6.20;;
36377;SDS011;22402;42.746;23.606;2023-12-20T03:55:26;7.90;;;5.00;;
36377;SDS011;22402;42.746;23.606;2023-12-20T03:57:52;11.17;;;6.03;;
36377;SDS011;22402;42.746;23.606;2023-12-20T04:00:17;8.93;;;6.37;;
36377;SDS011;22402;42.746;23.606;2023-12-20T04:02:43;7.97;;;4.40;;
36377;SDS011;22402;42.746;23.606;2023-12-20T04:05:09;6.67;;;4.37;;
36377;SDS011;22402;42.746;23.606;2023-12-20T04:07:36;5.90;;;3.33;;
36377;SDS011;22402;42.746;23.606;2023-12-20T04:10:01;5.73;;;3.43;;
36377;SDS011;22402;42.746;23.606;2023-12-20T04:12:28;4.73;;;3.73;;
36377;SDS011;22402;42.746;23.606;2023-12-20T04:14:54;10.40;;;7.27;;
36377;SDS011;22402;42.746;23.606;2023-12-20T04:17:20;8.40;;;7.07;;
36377;SDS011;22402;42.746;23.606;2023-12-20T04:19:47;11.53;;;7.10;;
36377;SDS011;22402;42.746;23.606;2023-12-20T04:22:13;10.37;;;6.90;;
36377;SDS011;22402;42.746;23.606;2023-12-20T04:24:38;11.13;;;6.60;;
36377;SDS011;22402;42.746;23.606;2023-12-20T04:27:07;8.47;;;6.33;;
36377;SDS011;22402;42.746;23.606;2023-12-20T04:29:33;9.70;;;6.60;;
36377;SDS011;22402;42.746;23.606;2023-12-20T04:31:58;10.40;;;7.07;;
36377;SDS011;22402;42.746;23.606;2023-12-20T04:34:25;11.00;;;6.77;;
36377;SDS011;22402;42.746;23.606;2023-12-20T04:36:50;9.20;;;7.10;;
36377;SDS011;22402;42.746;23.606;2023-12-20T04:39:16;10.20;;;6.20;;
36377;SDS011;22402;42.746;23.606;2023-12-20T04:41:41;8.50;;;6.50;;
36377;SDS011;22402;42.746;23.606;2023-12-20T04:44:07;8.83;;;5.93;;
36377;SDS011;22402;42.746;23.606;2023-12-20T04:46:32;8.80;;;5.90;;
36377;SDS011;22402;42.746;23.606;2023-12-20T04:48:58;10.53;;;6.63;;
36377;SDS011;22402;42.746;23.606;2023-12-20T04:51:23;8.10;;;5.30;;
36377;SDS011;22402;42.746;23.606;2023-12-20T04:53:49;11.10;;;7.00;;
36377;SDS011;22402;42.746;23.606;2023-12-20T04:56:14;10.90;;;6.60;;
36377;SDS011;22402;42.746;23.606;2023-12-20T04:58:43;11.67;;;7.57;;
36377;SDS011;22402;42.746;23.606;2023-12-20T05:01:09;10.30;;;7.03;;
36377;SDS011;22402;42.746;23.606;2023-12-20T05:03:35;14.23;;;8.50;;
36377;SDS011;22402;42.746;23.606;2023-12-20T05:06:00;14.27;;;8.77;;
36377;SDS011;22402;42.746;23.606;2023-12-20T05:08:26;17.93;;;9.00;;
36377;SDS011;22402;42.746;23.606;2023-12-20T05:10:55;11.80;;;8.30;;
36377;SDS011;22402;42.746;23.606;2023-12-20T05:13:21;11.47;;;7.50;;
36377;SDS011;22402;42.746;23.606;2023-12-20T05:15:47;11.27;;;7.10;;
36377;SDS011;22402;42.746;23.606;2023-12-20T05:18:13;10.13;;;6.90;;
36377;SDS011;22402;42.746;23.606;2023-12-20T05:20:38;10.60;;;6.30;;
36377;SDS011;22402;42.746;23.606;2023-12-20T05:23:04;10.67;;;7.47;;
36377;SDS011;22402;42.746;23.606;2023-12-20T05:25:30;11.93;;;7.30;;
36377;SDS011;22402;42.746;23.606;2023-12-20T05:27:55;10.07;;;7.20;;
36377;SDS011;22402;42.746;23.606;2023-12-20T05:30:21;11.70;;;7.57;;
